Time,TemperatureF,DewpointF,PressureIn,WindDirection,WindDirectionDegrees,WindSpeedMPH,WindSpeedGustMPH,Humidity,HourlyPrecipIn,Conditions,Clouds,dailyrainin,SoftwareType,DateUTC
2013-01-20 00:06:00,30.2,28.0,30.22,SSE,157,0.0,2.0,92,0.00,,,0.00,weatherlink.com 1.10,2013-01-20 08:06:00,
2013-01-20 00:22:00,30.1,28.0,30.22,SSE,157,0.0,1.0,92,0.00,,,0.00,weatherlink.com 1.10,2013-01-20 08:22:00,
2013-01-20 00:37:00,29.4,27.0,30.22,SSE,157,0.0,0.0,92,0.00,,,0.00,weatherlink.com 1.10,2013-01-20 08:37:00,
2013-01-20 00:52:00,29.1,27.0,30.22,SSE,157,0.0,1.0,92,0.00,,,0.00,weatherlink.com 1.10,2013-01-20 08:52:00,
2013-01-20 01:07:00,28.9,27.0,30.23,SSE,157,0.0,1.0,92,0.00,,,0.00,weatherlink.com 1.10,2013-01-20 09:07:00,
2013-01-20 01:22:00,28.6,27.0,30.23,SSE,157,0.0,0.0,92,0.00,,,0.00,weatherlink.com 1.10,2013-01-20 09:22:00,
2013-01-20 01:37:00,28.1,26.0,30.23,SSE,157,0.0,0.0,92,0.00,,,0.00,weatherlink.com 1.10,2013-01-20 09:37:00,
2013-01-20 01:52:00,27.8,26.0,30.23,SSE,157,0.0,0.0,92,0.00,,,0.00,weatherlink.com 1.10,2013-01-20 09:52:00,
2013-01-20 02:07:00,27.8,26.0,30.23,SSE,157,0.0,0.0,92,0.00,,,0.00,weatherlink.com 1.10,2013-01-20 10:07:00,
2013-01-20 02:22:00,27.4,25.0,30.24,SSE,157,0.0,0.0,92,0.00,,,0.00,weatherlink.com 1.10,2013-01-20 10:22:00,
2013-01-20 02:37:00,27.1,25.0,30.24,SSE,157,0.0,0.0,92,0.00,,,0.00,weatherlink.com 1.10,2013-01-20 10:37:00,
2013-01-20 02:52:00,27.0,25.0,30.24,SSE,157,0.0,0.0,92,0.00,,,0.00,weatherlink.com 1.10,2013-01-20 10:52:00,
2013-01-20 03:07:00,26.6,25.0,30.24,SSE,157,0.0,0.0,92,0.00,,,0.00,weatherlink.com 1.10,2013-01-20 11:07:00,
2013-01-20 03:22:00,26.7,25.0,30.23,SSE,157,0.0,0.0,92,0.00,,,0.00,weatherlink.com 1.10,2013-01-20 11:22:00,
2013-01-20 03:37:00,26.7,25.0,30.23,SSE,157,0.0,0.0,93,0.00,,,0.00,weatherlink.com 1.10,2013-01-20 11:37:00,
2013-01-20 03:52:00,26.3,24.0,30.23,SSE,157,1.0,1.0,92,0.00,,,0.00,weatherlink.com 1.10,2013-01-20 11:52:00,
2013-01-20 04:07:00,26.0,24.0,30.23,SSE,157,0.0,0.0,92,0.00,,,0.00,weatherlink.com 1.10,2013-01-20 12:07:00,
2013-01-20 04:22:00,26.0,24.0,30.23,SSE,157,0.0,0.0,93,0.00,,,0.00,weatherlink.com 1.10,2013-01-20 12:22:00,
2013-01-20 04:37:00,25.7,24.0,30.23,SSE,157,0.0,0.0,92,0.00,,,0.00,weatherlink.com 1.10,2013-01-20 12:37:00,
2013-01-20 04:52:00,25.4,23.0,30.23,SSE,157,0.0,0.0,92,0.00,,,0.00,weatherlink.com 1.10,2013-01-20 12:52:00,
2013-01-20 05:07:00,25.5,24.0,30.23,SSE,157,0.0,0.0,93,0.00,,,0.00,weatherlink.com 1.10,2013-01-20 13:07:00,
2013-01-20 05:22:00,25.5,24.0,30.22,SSE,157,0.0,1.0,93,0.00,,,0.00,weatherlink.com 1.10,2013-01-20 13:22:00,
2013-01-20 05:37:00,25.5,24.0,30.22,SSE,157,0.0,0.0,93,0.00,,,0.00,weatherlink.com 1.10,2013-01-20 13:37:00,
2013-01-20 05:52:00,25.5,24.0,30.22,SSE,157,0.0,0.0,93,0.00,,,0.00,weatherlink.com 1.10,2013-01-20 13:52:00,
2013-01-20 06:07:00,25.2,23.0,30.21,SSE,157,0.0,0.0,92,0.00,,,0.00,weatherlink.com 1.10,2013-01-20 14:07:00,
2013-01-20 06:22:00,25.1,23.0,30.22,SSE,157,0.0,0.0,92,0.00,,,0.00,weatherlink.com 1.10,2013-01-20 14:22:00,
2013-01-20 06:37:00,24.9,23.0,30.22,SSE,157,0.0,0.0,92,0.00,,,0.00,weatherlink.com 1.10,2013-01-20 14:37:00,
2013-01-20 06:52:00,24.5,23.0,30.22,SSE,157,0.0,0.0,92,0.00,,,0.00,weatherlink.com 1.10,2013-01-20 14:52:00,
2013-01-20 07:07:00,24.4,22.0,30.22,SSE,157,0.0,0.0,92,0.00,,,0.00,weatherlink.com 1.10,2013-01-20 15:07:00,
2013-01-20 07:22:00,24.4,22.0,30.22,SSE,157,0.0,0.0,92,0.00,,,0.00,weatherlink.com 1.10,2013-01-20 15:22:00,
2013-01-20 07:37:00,24.5,23.0,30.22,SSE,157,0.0,0.0,92,0.00,,,0.00,weatherlink.com 1.10,2013-01-20 15:37:00,
2013-01-20 07:52:00,24.5,23.0,30.23,SSE,157,0.0,0.0,92,0.00,,,0.00,weatherlink.com 1.10,2013-01-20 15:52:00,
2013-01-20 08:07:00,26.1,24.0,30.23,SSE,157,1.0,2.0,93,0.00,,,0.00,weatherlink.com 1.10,2013-01-20 16:07:00,
2013-01-20 08:22:00,28.0,26.0,30.23,SSE,157,1.0,2.0,93,0.00,,,0.00,weatherlink.com 1.10,2013-01-20 16:22:00,
2013-01-20 08:37:00,30.0,28.0,30.23,SSE,157,0.0,0.0,93,0.00,,,0.00,weatherlink.com 1.10,2013-01-20 16:37:00,
2013-01-20 08:52:00,31.0,29.0,30.23,SSE,157,0.0,1.0,93,0.00,,,0.00,weatherlink.com 1.10,2013-01-20 16:52:00,
2013-01-20 09:07:00,33.0,32.0,30.23,SSE,157,0.0,1.0,94,0.00,,,0.00,weatherlink.com 1.10,2013-01-20 17:07:00,
2013-01-20 09:22:00,36.6,35.0,30.24,SSE,157,1.0,2.0,94,0.00,,,0.00,weatherlink.com 1.10,2013-01-20 17:22:00,
2013-01-20 09:37:00,39.2,36.0,30.24,SSE,157,0.0,1.0,88,0.00,,,0.00,weatherlink.com 1.10,2013-01-20 17:37:00,
2013-01-20 09:54:00,41.1,37.0,30.24,SSE,157,0.0,2.0,86,0.00,,,0.00,weatherlink.com 1.10,2013-01-20 17:54:00,
2013-01-20 10:08:00,43.3,35.0,30.24,NNE,20,2.0,4.0,73,0.00,,,0.00,weatherlink.com 1.10,2013-01-20 18:08:00,
2013-01-20 10:23:00,44.6,36.0,30.23,NE,38,3.0,4.0,71,0.00,,,0.00,weatherlink.com 1.10,2013-01-20 18:23:00,
2013-01-20 10:38:00,46.3,36.0,30.23,NE,39,2.0,4.0,68,0.00,,,0.00,weatherlink.com 1.10,2013-01-20 18:38:00,
2013-01-20 10:53:00,47.9,35.0,30.22,NNE,20,1.0,4.0,61,0.00,,,0.00,weatherlink.com 1.10,2013-01-20 18:53:00,
2013-01-20 11:08:00,49.3,35.0,30.22,NNW,336,3.0,5.0,59,0.00,,,0.00,weatherlink.com 1.10,2013-01-20 19:08:00,
2013-01-20 11:23:00,51.0,36.0,30.21,NW,319,5.0,5.0,56,0.00,,,0.00,weatherlink.com 1.10,2013-01-20 19:23:00,
2013-01-20 11:38:00,52.5,35.0,30.20,North,355,4.0,6.0,52,0.00,,,0.00,weatherlink.com 1.10,2013-01-20 19:38:00,
2013-01-20 11:53:00,53.1,35.0,30.20,NE,48,2.0,5.0,51,0.00,,,0.00,weatherlink.com 1.10,2013-01-20 19:53:00,
2013-01-20 12:08:00,54.7,36.0,30.18,NNW,348,5.0,5.0,50,0.00,,,0.00,weatherlink.com 1.10,2013-01-20 20:08:00,
2013-01-20 12:23:00,55.9,37.0,30.18,NNW,343,3.0,5.0,49,0.00,,,0.00,weatherlink.com 1.10,2013-01-20 20:23:00,
2013-01-20 12:38:00,56.8,38.0,30.17,ENE,65,1.0,4.0,49,0.00,,,0.00,weatherlink.com 1.10,2013-01-20 20:38:00,
2013-01-20 12:53:00,57.9,38.0,30.15,SW,236,1.0,3.0,48,0.00,,,0.00,weatherlink.com 1.10,2013-01-20 20:53:00,
2013-01-20 13:08:00,59.2,38.0,30.15,ESE,111,1.0,3.0,45,0.00,,,0.00,weatherlink.com 1.10,2013-01-20 21:08:00,
2013-01-20 13:23:00,60.3,39.0,30.14,SE,144,4.0,6.0,46,0.00,,,0.00,weatherlink.com 1.10,2013-01-20 21:23:00,
2013-01-20 13:38:00,60.5,38.0,30.14,South,174,3.0,5.0,44,0.00,,,0.00,weatherlink.com 1.10,2013-01-20 21:38:00,
2013-01-20 13:54:00,60.7,38.0,30.13,SSE,162,2.0,4.0,43,0.00,,,0.00,weatherlink.com 1.10,2013-01-20 21:54:00,
2013-01-20 14:09:00,61.3,38.0,30.13,South,175,3.0,4.0,43,0.00,,,0.00,weatherlink.com 1.10,2013-01-20 22:09:00,
2013-01-20 14:24:00,61.9,38.0,30.12,SSE,147,4.0,4.0,41,0.00,,,0.00,weatherlink.com 1.10,2013-01-20 22:24:00,
2013-01-20 14:39:00,62.0,37.0,30.12,SSE,165,1.0,4.0,39,0.00,,,0.00,weatherlink.com 1.10,2013-01-20 22:39:00,
2013-01-20 14:54:00,62.4,38.0,30.12,SE,138,2.0,4.0,40,0.00,,,0.00,weatherlink.com 1.10,2013-01-20 22:54:00,
2013-01-20 15:09:00,62.4,36.0,30.13,SSE,168,3.0,5.0,38,0.00,,,0.00,weatherlink.com 1.10,2013-01-20 23:09:00,
2013-01-20 15:24:00,62.3,39.0,30.13,SE,142,4.0,4.0,42,0.00,,,0.00,weatherlink.com 1.10,2013-01-20 23:24:00,
2013-01-20 15:39:00,62.2,40.0,30.14,South,171,1.0,5.0,44,0.00,,,0.00,weatherlink.com 1.10,2013-01-20 23:39:00,
2013-01-20 15:54:00,62.1,39.0,30.14,SE,145,3.0,5.0,43,0.00,,,0.00,weatherlink.com 1.10,2013-01-20 23:54:00,
2013-01-20 16:09:00,61.8,38.0,30.14,SSE,150,3.0,5.0,42,0.00,,,0.00,weatherlink.com 1.10,2013-01-21 00:09:00,
2013-01-20 16:24:00,61.4,39.0,30.14,SE,143,2.0,5.0,44,0.00,,,0.00,weatherlink.com 1.10,2013-01-21 00:24:00,
2013-01-20 16:39:00,60.3,38.0,30.14,ESE,122,1.0,4.0,44,0.00,,,0.00,weatherlink.com 1.10,2013-01-21 00:39:00,
2013-01-20 16:54:00,59.0,38.0,30.15,ESE,120,1.0,3.0,46,0.00,,,0.00,weatherlink.com 1.10,2013-01-21 00:54:00,
2013-01-20 17:09:00,57.6,38.0,30.14,ESE,120,0.0,0.0,48,0.00,,,0.00,weatherlink.com 1.10,2013-01-21 01:09:00,
2013-01-20 17:24:00,54.9,39.0,30.14,ESE,120,0.0,0.0,55,0.00,,,0.00,weatherlink.com 1.10,2013-01-21 01:24:00,
2013-01-20 17:39:00,50.9,38.0,30.14,ESE,120,0.0,0.0,62,0.00,,,0.00,weatherlink.com 1.10,2013-01-21 01:39:00,
2013-01-20 17:54:00,47.7,38.0,30.14,ESE,120,0.0,0.0,68,0.00,,,0.00,weatherlink.com 1.10,2013-01-21 01:54:00,
2013-01-20 18:09:00,44.9,36.0,30.14,ESE,120,0.0,1.0,72,0.00,,,0.00,weatherlink.com 1.10,2013-01-21 02:09:00,
2013-01-20 18:24:00,43.0,37.0,30.15,ESE,120,0.0,0.0,78,0.00,,,0.00,weatherlink.com 1.10,2013-01-21 02:24:00,
2013-01-20 18:39:00,41.7,36.0,30.16,ESE,120,0.0,0.0,80,0.00,,,0.00,weatherlink.com 1.10,2013-01-21 02:39:00,
2013-01-20 18:54:00,40.2,35.0,30.16,ESE,120,0.0,0.0,83,0.00,,,0.00,weatherlink.com 1.10,2013-01-21 02:54:00,
2013-01-20 19:09:00,38.9,35.0,30.16,ESE,120,0.0,0.0,85,0.00,,,0.00,weatherlink.com 1.10,2013-01-21 03:09:00,
2013-01-20 19:24:00,38.2,34.0,30.16,ESE,120,0.0,0.0,85,0.00,,,0.00,weatherlink.com 1.10,2013-01-21 03:24:00,
2013-01-20 19:39:00,37.3,34.0,30.17,ESE,120,0.0,0.0,86,0.00,,,0.00,weatherlink.com 1.10,2013-01-21 03:39:00,
2013-01-20 19:54:00,36.8,34.0,30.17,ESE,120,0.0,0.0,88,0.00,,,0.00,weatherlink.com 1.10,2013-01-21 03:54:00,
2013-01-20 20:09:00,36.1,33.0,30.17,ESE,120,0.0,0.0,88,0.00,,,0.00,weatherlink.com 1.10,2013-01-21 04:09:00,
2013-01-20 20:24:00,35.3,32.0,30.18,ESE,120,0.0,0.0,89,0.00,,,0.00,weatherlink.com 1.10,2013-01-21 04:24:00,
2013-01-20 20:39:00,34.8,32.0,30.17,ESE,120,0.0,0.0,89,0.00,,,0.00,weatherlink.com 1.10,2013-01-21 04:39:00,
2013-01-20 20:54:00,34.0,31.0,30.18,ESE,120,0.0,0.0,89,0.00,,,0.00,weatherlink.com 1.10,2013-01-21 04:54:00,
2013-01-20 21:09:00,33.8,32.0,30.18,ESE,120,0.0,0.0,91,0.00,,,0.00,weatherlink.com 1.10,2013-01-21 05:09:00,
2013-01-20 21:24:00,33.3,31.0,30.18,ESE,120,0.0,0.0,90,0.00,,,0.00,weatherlink.com 1.10,2013-01-21 05:24:00,
2013-01-20 21:39:00,32.8,31.0,30.19,ESE,120,0.0,0.0,91,0.00,,,0.00,weatherlink.com 1.10,2013-01-21 05:39:00,
2013-01-20 21:54:00,32.1,30.0,30.19,ESE,120,0.0,0.0,90,0.00,,,0.00,weatherlink.com 1.10,2013-01-21 05:54:00,
2013-01-20 22:09:00,31.6,29.0,30.18,ESE,120,0.0,0.0,90,0.00,,,0.00,weatherlink.com 1.10,2013-01-21 06:09:00,
2013-01-20 22:24:00,31.6,30.0,30.18,ESE,120,0.0,1.0,92,0.00,,,0.00,weatherlink.com 1.10,2013-01-21 06:24:00,
2013-01-20 22:39:00,31.3,29.0,30.19,ESE,120,0.0,0.0,91,0.00,,,0.00,weatherlink.com 1.10,2013-01-21 06:39:00,
2013-01-20 22:54:00,31.1,29.0,30.19,ESE,120,0.0,1.0,91,0.00,,,0.00,weatherlink.com 1.10,2013-01-21 06:54:00,
2013-01-20 23:09:00,31.3,29.0,30.19,ESE,120,0.0,0.0,92,0.00,,,0.00,weatherlink.com 1.10,2013-01-21 07:09:00,
2013-01-20 23:24:00,31.0,29.0,30.18,ESE,120,0.0,1.0,92,0.00,,,0.00,weatherlink.com 1.10,2013-01-21 07:24:00,
2013-01-20 23:39:00,29.9,28.0,30.18,ESE,120,0.0,0.0,91,0.00,,,0.00,weatherlink.com 1.10,2013-01-21 07:39:00,
2013-01-20 23:54:00,30.0,28.0,30.18,ESE,120,0.0,0.0,92,0.00,,,0.00,weatherlink.com 1.10,2013-01-21 07:54:00,